Time;durP1;ratioP1;P1;durP2;ratioP2;P2;SDS_P1;SDS_P2;PMS_P1;PMS_P2;Temp;Humidity;BMP_temperature;BMP_pressure;BME280_temperature;BME280_humidity;BME280_pressure;Samples;Min_cycle;Max_cycle;Signal;HPM_P1;HPM_P2
2022/07/24 00:00:16;;;;;;;15.87;14.27;;;23.50;1.00;;;;;;5031525;28;20904;-67
2022/07/24 00:02:42;;;;;;;17.53;14.47;;;23.50;1.00;;;;;;5031679;28;20626;-67
2022/07/24 00:05:09;;;;;;;25.10;15.17;;;23.50;1.00;;;;;;5031677;28;20406;-67
2022/07/24 00:07:35;;;;;;;15.73;14.30;;;23.50;1.00;;;;;;5035287;28;20426;-68
2022/07/24 00:10:02;;;;;;;23.70;16.63;;;23.60;1.00;;;;;;5034070;28;20458;-68
2022/07/24 00:12:28;;;;;;;18.93;14.60;;;23.60;1.00;;;;;;5031425;28;20564;-68
2022/07/24 00:14:53;;;;;;;16.00;14.50;;;23.70;1.00;;;;;;5030771;28;20513;-68
2022/07/24 00:17:19;;;;;;;14.77;13.30;;;23.70;1.00;;;;;;5033288;28;20178;-68
2022/07/24 00:19:45;;;;;;;16.87;15.07;;;23.60;1.00;;;;;;5044058;28;20191;-67
2022/07/24 00:22:10;;;;;;;16.73;15.23;;;23.50;1.00;;;;;;5036560;28;20178;-66
2022/07/24 00:24:36;;;;;;;20.70;16.77;;;23.10;1.00;;;;;;5043877;28;20646;-68
2022/07/24 00:27:02;;;;;;;19.13;17.33;;;22.80;99.90;;;;;;5044818;28;20179;-68
2022/07/24 00:29:28;;;;;;;19.40;17.63;;;22.80;1.00;;;;;;5042634;28;20221;-68
2022/07/24 00:31:54;;;;;;;23.60;17.90;;;22.80;1.00;;;;;;5039041;28;20187;-67
2022/07/24 00:34:19;;;;;;;20.27;17.33;;;22.90;1.00;;;;;;5030427;28;20195;-68
2022/07/24 00:36:45;;;;;;;20.27;18.10;;;23.00;99.90;;;;;;5029444;28;20625;-67
2022/07/24 00:39:11;;;;;;;18.90;17.10;;;23.10;99.90;;;;;;5029764;28;20195;-68
2022/07/24 00:41:37;;;;;;;21.97;19.23;;;23.10;99.90;;;;;;5031342;28;20328;-68
2022/07/24 00:44:15;;;;;;;18.43;16.63;;;23.20;99.90;;;;;;5039454;28;20205;-68
2022/07/24 00:46:43;;;;;;;18.10;16.60;;;23.20;99.90;;;;;;5044033;28;20217;-68
2022/07/24 00:49:12;;;;;;;19.57;17.50;;;23.20;99.90;;;;;;5041812;28;20490;-68
2022/07/24 00:51:41;;;;;;;18.17;16.33;;;23.10;99.90;;;;;;5051722;28;20520;-67
2022/07/24 00:54:08;;;;;;;18.80;16.80;;;23.10;99.90;;;;;;5035399;28;20449;-68
2022/07/24 00:56:35;;;;;;;23.83;16.77;;;23.20;99.90;;;;;;5041489;28;20914;-67
2022/07/24 00:59:02;;;;;;;22.27;18.83;;;23.20;98.10;;;;;;5034671;28;20978;-67
2022/07/24 01:01:28;;;;;;;41.93;21.00;;;23.20;99.90;;;;;;5031011;28;20429;-67
2022/07/24 01:03:54;;;;;;;19.40;17.47;;;23.10;99.90;;;;;;5031876;28;20915;-67
2022/07/24 01:06:21;;;;;;;20.47;18.40;;;23.00;99.90;;;;;;5031062;28;20444;-68
2022/07/24 01:08:47;;;;;;;20.43;18.27;;;22.90;99.90;;;;;;5033826;28;20418;-68
2022/07/24 01:11:13;;;;;;;20.20;18.20;;;22.80;1.00;;;;;;5031801;28;20513;-67
2022/07/24 01:13:39;;;;;;;20.77;18.43;;;22.50;1.00;;;;;;5036681;28;20524;-67
2022/07/24 01:16:06;;;;;;;18.67;16.83;;;22.50;1.00;;;;;;5043510;28;20198;-67
2022/07/24 01:18:32;;;;;;;19.87;17.93;;;22.50;1.00;;;;;;5040203;28;20496;-67
2022/07/24 01:20:58;;;;;;;20.70;18.80;;;22.60;1.00;;;;;;5036333;28;20449;-67
2022/07/24 01:23:23;;;;;;;19.47;17.50;;;22.60;1.00;;;;;;5036525;28;20200;-68
2022/07/24 01:25:50;;;;;;;17.70;16.00;;;22.60;1.00;;;;;;5029565;28;20184;-68
2022/07/24 01:28:16;;;;;;;17.90;16.20;;;22.70;99.90;;;;;;5028718;28;20248;-68
2022/07/24 01:30:42;;;;;;;18.23;16.43;;;22.80;99.90;;;;;;5032175;28;20512;-67
2022/07/24 01:33:07;;;;;;;20.67;16.60;;;22.80;99.90;;;;;;5034011;28;20205;-67
2022/07/24 01:35:33;;;;;;;16.87;15.37;;;22.80;99.90;;;;;;5036456;28;20197;-67
2022/07/24 01:37:59;;;;;;;22.10;16.70;;;22.70;99.90;;;;;;5028722;28;20187;-67
2022/07/24 01:40:25;;;;;;;19.93;17.93;;;22.80;99.90;;;;;;5033657;28;20214;-67
2022/07/24 01:42:51;;;;;;;18.97;17.00;;;22.70;99.90;;;;;;5032386;28;20278;-67
2022/07/24 01:45:17;;;;;;;19.50;17.60;;;22.70;99.90;;;;;;5056367;28;20563;-67
2022/07/24 01:47:44;;;;;;;18.77;16.83;;;22.70;99.90;;;;;;5046998;28;20270;-68
2022/07/24 01:50:11;;;;;;;19.53;17.63;;;22.60;99.90;;;;;;5039824;28;20498;-68
2022/07/24 01:52:37;;;;;;;19.20;17.50;;;22.60;99.90;;;;;;5050938;28;20459;-68
2022/07/24 01:55:03;;;;;;;18.97;16.90;;;22.50;99.90;;;;;;5038704;28;20422;-68
2022/07/24 01:57:29;;;;;;;27.17;18.93;;;22.50;1.00;;;;;;5033191;28;20791;-68
2022/07/24 01:59:54;;;;;;;25.00;17.27;;;22.50;1.00;;;;;;5032662;28;20479;-67
2022/07/24 02:02:20;;;;;;;22.00;19.37;;;22.50;99.90;;;;;;5036871;28;20200;-67
2022/07/24 02:04:46;;;;;;;21.00;18.90;;;22.60;99.90;;;;;;5044778;28;20175;-67
2022/07/24 02:07:12;;;;;;;24.57;20.83;;;22.60;99.90;;;;;;5046826;28;20194;-67
2022/07/24 02:09:37;;;;;;;19.37;17.37;;;22.60;99.90;;;;;;5043945;28;20179;-68
2022/07/24 02:12:03;;;;;;;21.37;19.23;;;22.60;99.90;;;;;;5032838;28;20179;-67
2022/07/24 02:14:29;;;;;;;20.50;18.50;;;22.50;99.90;;;;;;5042408;28;20208;-68
2022/07/24 02:16:55;;;;;;;22.47;20.20;;;22.40;1.00;;;;;;5032756;28;20660;-67
2022/07/24 02:19:22;;;;;;;20.03;18.23;;;22.30;1.00;;;;;;5031398;28;20223;-67
2022/07/24 02:21:48;;;;;;;21.00;18.87;;;22.40;1.00;;;;;;5035298;28;20187;-67
2022/07/24 02:24:14;;;;;;;21.90;19.87;;;22.50;99.90;;;;;;5032669;28;20492;-68
2022/07/24 02:26:39;;;;;;;20.90;19.00;;;22.60;99.90;;;;;;5034250;28;20206;-67
2022/07/24 02:29:05;;;;;;;20.20;18.00;;;22.60;99.90;;;;;;5040767;28;20183;-67
2022/07/24 02:31:31;;;;;;;21.07;18.97;;;22.60;99.90;;;;;;5042359;28;20682;-67
2022/07/24 02:33:57;;;;;;;21.97;18.23;;;22.60;99.90;;;;;;5032308;28;20208;-68
2022/07/24 02:36:22;;;;;;;19.03;17.27;;;22.60;99.90;;;;;;5033212;28;20617;-66
2022/07/24 02:38:48;;;;;;;27.07;18.63;;;22.60;99.90;;;;;;5031548;28;20215;-68
2022/07/24 02:41:14;;;;;;;23.13;18.90;;;22.60;99.90;;;;;;5032228;28;20301;-67
2022/07/24 02:43:40;;;;;;;17.90;16.13;;;22.60;99.90;;;;;;5036977;28;20191;-67
2022/07/24 02:46:05;;;;;;;18.13;16.50;;;22.60;99.90;;;;;;5042015;28;20180;-67
2022/07/24 02:48:31;;;;;;;39.13;18.70;;;22.50;99.90;;;;;;5031049;28;20600;-67
2022/07/24 02:50:57;;;;;;;18.23;15.63;;;22.50;94.90;;;;;;5050018;28;20540;-67
2022/07/24 02:53:23;;;;;;;21.93;17.23;;;22.50;99.90;;;;;;5043131;28;20194;-67
2022/07/24 02:55:48;;;;;;;18.47;16.77;;;22.50;99.90;;;;;;5032055;28;20191;-67
2022/07/24 02:58:14;;;;;;;21.73;17.10;;;22.40;99.90;;;;;;5031202;28;20381;-67
2022/07/24 03:00:40;;;;;;;16.33;14.87;;;22.40;99.90;;;;;;5032095;28;20218;-68
2022/07/24 03:03:06;;;;;;;17.30;14.33;;;22.50;22.50;;;;;;5035878;28;20229;-67
2022/07/24 03:05:31;;;;;;;16.67;14.97;;;22.50;1.00;;;;;;5032006;28;20293;-67
2022/07/24 03:07:57;;;;;;;14.57;13.17;;;22.50;1.00;;;;;;5014036;28;20179;-67
2022/07/24 03:10:23;;;;;;;22.07;15.57;;;22.50;1.00;;;;;;5032203;28;20180;-67
2022/07/24 03:12:49;;;;;;;22.53;15.03;;;22.50;1.00;;;;;;5031856;28;20199;-69
2022/07/24 03:15:15;;;;;;;18.77;14.23;;;22.50;1.00;;;;;;5036888;28;20616;-67
2022/07/24 03:17:52;;;;;;;19.57;15.33;;;22.40;1.00;;;;;;5038286;28;20693;-68
2022/07/24 03:20:19;;;;;;;142.70;28.97;;;22.40;1.00;;;;;;5036206;28;20461;-67
2022/07/24 03:22:45;;;;;;;19.27;14.53;;;22.50;1.00;;;;;;5038860;28;20436;-67
2022/07/24 03:25:11;;;;;;;16.93;14.53;;;22.40;1.00;;;;;;5028944;28;21003;-67
2022/07/24 03:27:37;;;;;;;16.90;15.00;;;22.30;1.00;;;;;;5052160;28;20414;-67
2022/07/24 03:30:05;;;;;;;24.60;15.80;;;22.30;1.00;;;;;;5037589;28;20183;-67
2022/07/24 03:32:30;;;;;;;20.47;15.60;;;22.30;1.00;;;;;;5035114;28;21156;-68
2022/07/24 03:34:56;;;;;;;35.57;14.83;;;22.40;1.00;;;;;;5047309;28;20449;-67
2022/07/24 03:37:22;;;;;;;30.13;15.20;;;22.30;1.00;;;;;;5040509;28;20772;-68
2022/07/24 03:39:47;;;;;;;23.20;15.23;;;22.30;1.00;;;;;;5050331;28;20343;-68
2022/07/24 03:42:13;;;;;;;21.13;15.83;;;22.30;1.00;;;;;;5050168;28;20167;-67
2022/07/24 03:44:39;;;;;;;18.33;15.60;;;22.40;1.00;;;;;;5060099;28;20159;-68
2022/07/24 03:47:04;;;;;;;33.20;16.10;;;22.40;1.00;;;;;;5050279;28;20175;-68
2022/07/24 03:49:30;;;;;;;19.73;14.23;;;22.40;1.00;;;;;;5036999;28;20277;-68
2022/07/24 03:51:56;;;;;;;18.83;15.87;;;22.40;1.00;;;;;;5020446;28;20175;-67
2022/07/24 03:54:22;;;;;;;20.57;14.33;;;22.30;1.00;;;;;;5040065;28;20213;-67
2022/07/24 03:56:48;;;;;;;56.70;19.70;;;22.20;1.00;;;;;;5034594;28;20179;-67
2022/07/24 03:59:14;;;;;;;34.30;17.10;;;22.20;1.00;;;;;;5038167;28;20274;-68
2022/07/24 04:01:39;;;;;;;22.53;14.93;;;22.30;1.00;;;;;;5038605;28;21168;-67
2022/07/24 04:04:05;;;;;;;26.27;15.20;;;22.30;1.00;;;;;;5034689;28;20206;-69
2022/07/24 04:06:35;;;;;;;24.00;16.70;;;22.30;1.00;;;;;;5072263;22;20244;-69
2022/07/24 04:09:02;;;;;;;25.53;15.27;;;22.30;1.00;;;;;;5058501;28;20553;-69
2022/07/24 04:11:28;;;;;;;47.53;19.37;;;22.40;1.00;;;;;;5050044;28;20738;-72
2022/07/24 04:13:54;;;;;;;29.47;16.33;;;22.50;1.00;;;;;;5050312;28;20413;-70
2022/07/24 04:16:19;;;;;;;26.47;15.10;;;22.50;1.00;;;;;;5048544;28;20187;-71
2022/07/24 04:18:45;;;;;;;20.33;15.37;;;22.50;1.00;;;;;;5044651;28;20174;-70
2022/07/24 04:21:11;;;;;;;33.43;14.53;;;22.40;1.00;;;;;;5046355;28;20261;-70
2022/07/24 04:23:37;;;;;;;29.73;15.00;;;22.30;1.00;;;;;;5045932;28;20170;-69
2022/07/24 04:26:04;;;;;;;19.10;14.03;;;22.40;1.00;;;;;;5047113;28;20549;-69
2022/07/24 04:28:29;;;;;;;19.00;14.73;;;22.40;1.00;;;;;;5044984;28;20167;-69
2022/07/24 04:30:56;;;;;;;18.00;15.03;;;22.40;1.00;;;;;;5046328;28;20447;-69
2022/07/24 04:33:22;;;;;;;31.33;15.27;;;22.30;1.00;;;;;;5045060;28;20679;-70
2022/07/24 04:35:47;;;;;;;19.33;14.20;;;22.50;1.00;;;;;;5045979;28;20532;-70
2022/07/24 04:38:13;;;;;;;29.07;14.83;;;22.60;1.00;;;;;;5045133;28;20619;-70
2022/07/24 04:40:40;;;;;;;34.53;16.77;;;22.80;1.00;;;;;;5045859;28;20280;-70
2022/07/24 04:43:05;;;;;;;23.07;14.30;;;23.00;1.00;;;;;;5045897;28;20166;-69
2022/07/24 04:45:31;;;;;;;29.23;14.63;;;23.10;1.00;;;;;;5046159;28;20517;-70
2022/07/24 04:47:57;;;;;;;22.87;14.07;;;23.30;99.90;;;;;;5026231;28;20285;-70
2022/07/24 04:50:23;;;;;;;19.73;13.43;;;23.30;99.90;;;;;;5046511;28;20178;-70
2022/07/24 04:52:49;;;;;;;22.63;15.50;;;23.30;99.90;;;;;;5045558;28;20204;-70
2022/07/24 04:55:15;;;;;;;15.50;14.10;;;23.40;99.90;;;;;;5045893;28;20618;-70
2022/07/24 04:57:41;;;;;;;18.63;14.47;;;23.50;99.90;;;;;;5045376;28;20179;-69
2022/07/24 05:00:10;;;;;;;16.03;14.37;;;23.50;99.90;;;;;;5045476;28;20194;-70
2022/07/24 05:02:36;;;;;;;21.93;15.23;;;23.70;99.90;;;;;;5044762;28;20746;-70
2022/07/24 05:05:02;;;;;;;18.40;16.17;;;23.90;99.90;;;;;;5046390;28;20496;-70
2022/07/24 05:07:28;;;;;;;16.43;14.73;;;24.00;99.90;;;;;;5045126;28;20218;-69
2022/07/24 05:09:54;;;;;;;20.37;14.70;;;24.10;99.90;;;;;;5045860;28;20432;-69
2022/07/24 05:12:19;;;;;;;31.37;15.33;;;24.20;99.90;;;;;;5046510;28;20175;-70
2022/07/24 05:14:45;;;;;;;18.67;14.90;;;24.30;99.90;;;;;;5045962;28;20202;-69
2022/07/24 05:17:11;;;;;;;28.33;17.30;;;24.20;99.90;;;;;;5045914;28;20202;-69
2022/07/24 05:19:36;;;;;;;22.83;14.87;;;24.20;99.90;;;;;;5044634;28;20198;-69
2022/07/24 05:22:02;;;;;;;20.60;14.23;;;24.30;99.90;;;;;;5047735;28;20590;-69
2022/07/24 05:24:28;;;;;;;32.90;14.83;;;24.40;99.90;;;;;;5050337;28;20197;-67
2022/07/24 05:26:54;;;;;;;22.70;14.83;;;24.70;99.90;;;;;;5049449;28;20606;-73
2022/07/24 05:29:20;;;;;;;19.80;14.63;;;24.80;99.90;;;;;;5049139;28;20512;-69
2022/07/24 05:31:46;;;;;;;24.47;13.90;;;25.00;99.90;;;;;;5049504;28;20183;-67
2022/07/24 05:34:12;;;;;;;19.07;13.83;;;25.20;99.90;;;;;;5048618;28;21198;-69
2022/07/24 05:36:38;;;;;;;28.00;15.20;;;25.20;99.90;;;;;;5049513;28;20699;-69
2022/07/24 05:39:05;;;;;;;20.17;14.23;;;25.20;99.90;;;;;;5048480;28;20530;-70
2022/07/24 05:41:30;;;;;;;25.47;14.17;;;25.30;99.90;;;;;;5050199;28;20223;-70
2022/07/24 05:43:56;;;;;;;26.33;14.17;;;25.50;99.90;;;;;;5049663;28;20502;-70
2022/07/24 05:46:22;;;;;;;22.73;13.83;;;25.60;99.90;;;;;;5049822;28;20198;-67
2022/07/24 05:48:48;;;;;;;30.77;14.70;;;25.70;99.90;;;;;;5047008;28;20175;-68
2022/07/24 05:51:13;;;;;;;14.60;12.97;;;25.70;99.90;;;;;;5050953;28;20182;-68
2022/07/24 05:53:39;;;;;;;17.10;13.30;;;25.60;99.90;;;;;;5049539;28;20208;-68
2022/07/24 05:56:05;;;;;;;39.40;16.10;;;25.70;99.90;;;;;;5048081;28;20190;-69
2022/07/24 05:58:31;;;;;;;45.77;16.83;;;25.90;99.90;;;;;;5046176;28;20610;-68
2022/07/24 06:00:57;;;;;;;29.83;15.53;;;26.10;99.90;;;;;;5049638;28;20467;-69
2022/07/24 06:03:22;;;;;;;28.47;15.10;;;26.10;99.90;;;;;;5048030;28;20174;-67
2022/07/24 06:05:48;;;;;;;38.13;17.00;;;26.00;99.90;;;;;;5049070;28;20206;-68
2022/07/24 06:08:14;;;;;;;29.97;13.43;;;26.20;99.90;;;;;;5048428;28;20243;-68
2022/07/24 06:10:40;;;;;;;31.67;15.27;;;26.40;99.90;;;;;;5049345;28;20206;-68
2022/07/24 06:13:06;;;;;;;26.23;14.63;;;26.60;99.90;;;;;;5049725;28;20273;-68
2022/07/24 06:15:31;;;;;;;21.70;13.37;;;26.40;99.90;;;;;;5050005;28;20767;-70
2022/07/24 06:17:57;;;;;;;20.20;13.90;;;26.50;99.90;;;;;;5047753;28;20259;-70
2022/07/24 06:20:23;;;;;;;22.43;14.07;;;26.60;99.90;;;;;;5049201;28;20285;-68
2022/07/24 06:22:49;;;;;;;14.83;13.43;;;26.40;99.90;;;;;;5049202;28;20182;-71
2022/07/24 06:25:15;;;;;;;20.57;14.70;;;26.30;99.90;;;;;;5049513;28;20170;-71
2022/07/24 06:27:49;;;;;;;15.13;12.17;;;26.50;99.90;;;;;;5049433;28;20171;-71
2022/07/24 06:30:21;;;;;;;29.33;14.20;;;26.70;99.90;;;;;;5046495;28;20813;-71
2022/07/24 06:32:47;;;;;;;25.73;15.13;;;26.90;99.90;;;;;;5047312;28;20428;-71
2022/07/24 06:35:13;;;;;;;15.87;14.47;;;27.00;99.90;;;;;;5031110;28;20416;-71
2022/07/24 06:37:39;;;;;;;20.43;15.23;;;26.20;99.90;;;;;;5048720;28;20421;-70
2022/07/24 06:40:06;;;;;;;15.77;14.20;;;25.30;99.90;;;;;;5041829;28;20457;-68
2022/07/24 06:42:32;;;;;;;21.77;14.80;;;25.50;99.90;;;;;;5027625;28;20281;-66
2022/07/24 06:44:58;;;;;;;24.17;15.60;;;26.10;99.90;;;;;;5030590;28;20914;-69
2022/07/24 06:47:25;;;;;;;33.37;16.57;;;26.30;99.90;;;;;;5030822;28;20192;-67
2022/07/24 06:49:54;;;;;;;15.10;13.77;;;26.60;99.90;;;;;;5027979;28;20197;-70
2022/07/24 06:52:20;;;;;;;17.03;15.10;;;26.90;99.90;;;;;;5031220;28;20418;-67
2022/07/24 06:54:46;;;;;;;27.20;14.93;;;26.90;99.90;;;;;;5029527;28;20548;-68
2022/07/24 06:57:12;;;;;;;29.23;14.57;;;27.00;99.90;;;;;;5035063;28;20238;-67
2022/07/24 06:59:38;;;;;;;21.43;14.37;;;27.50;99.90;;;;;;5039531;28;20486;-69
2022/07/24 07:02:03;;;;;;;30.73;15.70;;;27.70;99.90;;;;;;5028972;28;20616;-69
2022/07/24 07:04:29;;;;;;;17.07;14.93;;;27.80;99.90;;;;;;5027700;28;20287;-69
2022/07/24 07:06:55;;;;;;;16.27;14.57;;;27.70;99.90;;;;;;5010714;28;20203;-68
2022/07/24 07:09:20;;;;;;;24.73;15.23;;;27.80;99.90;;;;;;5028352;28;20547;-68
2022/07/24 07:11:46;;;;;;;41.77;16.43;;;27.60;99.90;;;;;;5028386;28;20187;-69
2022/07/24 07:14:12;;;;;;;23.00;14.13;;;27.80;99.90;;;;;;5028413;28;20249;-69
2022/07/24 07:16:38;;;;;;;111.70;21.50;;;27.90;99.90;;;;;;5028893;28;20281;-69
2022/07/24 07:19:03;;;;;;;45.87;16.40;;;28.10;99.90;;;;;;5025865;28;20179;-69
2022/07/24 07:21:29;;;;;;;36.80;16.67;;;28.40;99.90;;;;;;5028593;28;20170;-69
2022/07/24 07:23:55;;;;;;;46.10;15.70;;;28.70;99.90;;;;;;5028107;28;20179;-69
2022/07/24 07:26:21;;;;;;;31.97;15.07;;;28.90;99.90;;;;;;5028763;28;20198;-68
2022/07/24 07:28:46;;;;;;;14.37;13.17;;;29.10;99.90;;;;;;5027405;28;20217;-68
2022/07/24 07:31:12;;;;;;;15.30;13.70;;;28.30;99.90;;;;;;5028258;28;20187;-68
2022/07/24 07:33:38;;;;;;;18.50;13.83;;;28.00;99.90;;;;;;5008978;28;20265;-66
2022/07/24 07:36:04;;;;;;;21.43;13.77;;;28.40;99.90;;;;;;5029052;28;20206;-71
2022/07/24 07:38:30;;;;;;;17.90;13.97;;;28.90;99.90;;;;;;5027372;28;20273;-71
2022/07/24 07:40:55;;;;;;;34.27;15.73;;;28.70;99.90;;;;;;5028068;28;20235;-72
2022/07/24 07:43:21;;;;;;;15.37;13.83;;;29.00;99.90;;;;;;5028128;28;20169;-71
2022/07/24 07:45:47;;;;;;;20.20;13.73;;;28.80;99.90;;;;;;5034123;28;20362;-72
2022/07/24 07:48:12;;;;;;;23.77;13.67;;;28.40;99.90;;;;;;5020629;28;20175;-72
2022/07/24 07:50:38;;;;;;;20.80;13.27;;;28.40;99.90;;;;;;5033809;28;20232;-72
2022/07/24 07:53:04;;;;;;;14.07;12.70;;;28.60;99.90;;;;;;5028722;28;20233;-70
2022/07/24 07:55:30;;;;;;;17.57;15.07;;;28.20;99.90;;;;;;5028947;28;20175;-72
2022/07/24 07:57:55;;;;;;;14.03;12.60;;;28.10;99.90;;;;;;5027393;28;20179;-72
2022/07/24 08:00:21;;;;;;;15.40;11.80;;;27.90;99.90;;;;;;5027797;28;20190;-72
2022/07/24 08:02:47;;;;;;;14.47;13.20;;;28.20;99.90;;;;;;5032230;28;20171;-71
2022/07/24 08:05:13;;;;;;;19.30;14.07;;;28.40;99.90;;;;;;5028386;28;20182;-71
2022/07/24 08:07:39;;;;;;;16.97;13.37;;;28.70;99.90;;;;;;5017355;28;20176;-71
2022/07/24 08:10:05;;;;;;;41.27;15.33;;;28.40;99.90;;;;;;5014038;28;20183;-71
2022/07/24 08:12:31;;;;;;;13.87;12.53;;;28.40;99.90;;;;;;5027234;28;20657;-70
2022/07/24 08:14:57;;;;;;;12.23;11.33;;;28.00;99.90;;;;;;5027689;28;20497;-70
2022/07/24 08:17:22;;;;;;;14.73;13.07;;;28.00;99.90;;;;;;5025308;28;20628;-71
2022/07/24 08:19:48;;;;;;;12.13;10.90;;;28.10;99.90;;;;;;5025460;28;20259;-71
2022/07/24 08:22:14;;;;;;;16.03;11.90;;;28.30;99.90;;;;;;5027846;28;20186;-70
2022/07/24 08:24:40;;;;;;;13.13;11.63;;;28.20;99.90;;;;;;5016331;28;20254;-71
2022/07/24 08:27:06;;;;;;;13.03;11.37;;;27.80;99.90;;;;;;5022469;28;20229;-71
2022/07/24 08:29:32;;;;;;;13.43;10.77;;;27.90;99.90;;;;;;5024756;28;20414;-71
2022/07/24 08:31:57;;;;;;;19.60;12.83;;;28.00;99.90;;;;;;5020845;28;20421;-71
2022/07/24 08:34:23;;;;;;;21.93;12.67;;;28.80;99.90;;;;;;5024386;28;20652;-71
2022/07/24 08:36:49;;;;;;;11.17;10.27;;;29.10;99.90;;;;;;5026153;28;20274;-71
2022/07/24 08:39:15;;;;;;;14.73;13.23;;;28.60;99.90;;;;;;5005982;28;20199;-71
2022/07/24 08:41:42;;;;;;;43.17;14.80;;;28.60;99.90;;;;;;5024967;28;20420;-70
2022/07/24 08:44:09;;;;;;;13.20;10.80;;;29.00;99.90;;;;;;5021244;28;20212;-71
2022/07/24 08:46:40;;;;;;;13.13;12.03;;;29.20;99.90;;;;;;5024687;28;20445;-71
2022/07/24 08:49:14;;;;;;;14.30;11.27;;;28.70;99.90;;;;;;5010068;28;20771;-70
2022/07/24 08:51:42;;;;;;;23.97;12.57;;;29.00;99.90;;;;;;5032920;28;20452;-71
2022/07/24 08:54:09;;;;;;;16.77;12.03;;;29.30;99.90;;;;;;5044157;28;20470;-71
2022/07/24 08:56:39;;;;;;;11.80;10.70;;;29.70;99.90;;;;;;5038152;28;20452;-72
2022/07/24 08:59:05;;;;;;;35.67;13.53;;;29.10;99.90;;;;;;5023973;28;20393;-71
2022/07/24 09:01:32;;;;;;;16.67;10.60;;;29.20;99.90;;;;;;5022311;28;20449;-71
2022/07/24 09:03:57;;;;;;;13.17;11.47;;;29.10;99.90;;;;;;5034235;28;20859;-73
2022/07/24 09:06:23;;;;;;;11.47;10.43;;;29.50;99.90;;;;;;5033568;28;20202;-71
2022/07/24 09:09:04;;;;;;;13.57;12.13;;;29.00;99.90;;;;;;5024280;28;20533;-70
2022/07/24 09:11:30;;;;;;;11.97;10.80;;;28.50;99.90;;;;;;5006046;28;20509;-71
2022/07/24 09:16:47;;;;;;;13.53;11.23;;;29.10;99.90;;;;;;5023986;28;20544;-72
2022/07/24 09:19:13;;;;;;;12.73;11.73;;;29.60;99.90;;;;;;5023436;28;20800;-71
2022/07/24 09:21:40;;;;;;;13.33;11.80;;;29.10;99.90;;;;;;5023519;28;20413;-71
2022/07/24 09:24:13;;;;;;;12.43;10.93;;;29.20;99.90;;;;;;5005032;28;20971;-70
2022/07/24 09:26:46;;;;;;;12.43;11.37;;;29.50;99.90;;;;;;5022492;28;20623;-71
2022/07/24 09:29:13;;;;;;;15.67;11.07;;;28.70;99.90;;;;;;5001877;28;20471;-71
2022/07/24 09:31:50;;;;;;;18.40;12.07;;;28.70;99.90;;;;;;5026161;28;20420;-72
2022/07/24 09:34:16;;;;;;;50.10;14.93;;;29.20;99.90;;;;;;5031122;28;20477;-71
2022/07/24 09:37:00;;;;;;;16.30;11.20;;;29.60;99.90;;;;;;5024688;28;20495;-71
2022/07/24 09:39:27;;;;;;;17.50;11.73;;;29.90;99.90;;;;;;5019471;28;20307;-71
2022/07/24 09:41:55;;;;;;;11.87;10.97;;;30.20;99.90;;;;;;5030833;28;20479;-72
2022/07/24 09:44:23;;;;;;;12.47;11.07;;;29.20;99.90;;;;;;5027293;28;20414;-68
2022/07/24 09:47:05;;;;;;;20.17;11.70;;;28.80;99.90;;;;;;5019179;28;20447;-68
2022/07/24 09:49:31;;;;;;;13.83;11.40;;;28.90;99.90;;;;;;5013054;28;20642;-68
2022/07/24 09:52:32;;;;;;;11.30;10.40;;;28.80;99.90;;;;;;5019928;28;20425;-68
2022/07/24 09:54:58;;;;;;;12.30;10.80;;;29.10;99.90;;;;;;5017945;28;20440;-72
2022/07/24 09:57:25;;;;;;;11.80;10.90;;;28.60;99.90;;;;;;5015741;28;20448;-68
2022/07/24 09:59:59;;;;;;;11.83;10.73;;;28.60;99.90;;;;;;5040868;28;20464;-69
2022/07/24 10:02:33;;;;;;;12.73;11.73;;;29.00;99.90;;;;;;5044106;28;20416;-71
2022/07/24 10:05:00;;;;;;;13.17;11.87;;;29.40;99.90;;;;;;5044567;28;20906;-66
2022/07/24 10:07:28;;;;;;;14.13;12.83;;;29.30;99.90;;;;;;5044446;28;20923;-67
2022/07/24 10:09:59;;;;;;;12.23;11.23;;;29.00;99.90;;;;;;5061179;22;20595;-67
2022/07/24 10:12:29;;;;;;;11.83;10.83;;;29.20;99.90;;;;;;5049726;28;20567;-66
2022/07/24 10:14:56;;;;;;;12.27;11.27;;;29.10;99.90;;;;;;5049371;28;20569;-69
2022/07/24 10:17:29;;;;;;;16.20;10.50;;;29.20;99.90;;;;;;5047967;28;20404;-66
2022/07/24 10:20:02;;;;;;;10.63;9.83;;;29.70;99.90;;;;;;5048527;28;20667;-66
2022/07/24 10:22:42;;;;;;;11.70;10.60;;;29.20;99.90;;;;;;5048460;28;21226;-66
2022/07/24 10:25:12;;;;;;;12.30;11.20;;;28.90;99.90;;;;;;5049370;28;20420;-66
2022/07/24 10:27:39;;;;;;;11.60;10.40;;;29.20;99.90;;;;;;5049252;28;20416;-66
2022/07/24 10:30:10;;;;;;;13.47;12.37;;;29.10;99.90;;;;;;5049502;28;20439;-66
2022/07/24 10:32:37;;;;;;;12.60;11.33;;;29.00;99.90;;;;;;5042714;28;20409;-66
2022/07/24 10:35:18;;;;;;;12.87;11.77;;;29.40;99.90;;;;;;5050527;28;20413;-66
2022/07/24 10:38:12;;;;;;;19.00;11.47;;;29.20;99.90;;;;;;5047581;28;20417;-67
2022/07/24 10:40:50;;;;;;;13.57;11.07;;;29.70;99.90;;;;;;5043500;28;20445;-66
2022/07/24 10:43:21;;;;;;;13.50;10.80;;;30.10;97.60;;;;;;5044889;28;20499;-66
2022/07/24 10:45:56;;;;;;;21.67;11.77;;;30.30;95.30;;;;;;5029159;28;20680;-66
2022/07/24 10:48:22;;;;;;;14.27;11.70;;;30.30;93.50;;;;;;5024549;28;20504;-66
2022/07/24 10:50:57;;;;;;;12.13;10.90;;;29.90;95.00;;;;;;5029490;28;20483;-66
2022/07/24 10:53:41;;;;;;;12.17;10.30;;;29.60;95.50;;;;;;5026351;28;20718;-66
2022/07/24 10:56:26;;;;;;;15.57;11.23;;;29.00;94.50;;;;;;5027024;28;20528;-67
2022/07/24 10:59:03;;;;;;;11.97;10.77;;;28.80;94.80;;;;;;5024098;28;20445;-66
2022/07/24 11:01:31;;;;;;;11.97;10.97;;;28.50;94.90;;;;;;5026966;28;20414;-67
2022/07/24 11:03:58;;;;;;;20.30;11.33;;;28.30;95.30;;;;;;5027452;28;20488;-66
2022/07/24 11:07:12;;;;;;;13.40;10.50;;;28.50;95.90;;;;;;5028433;28;20906;-67
2022/07/24 11:09:58;;;;;;;11.83;10.73;;;29.30;94.80;;;;;;4985908;28;20480;-66
2022/07/24 11:12:32;;;;;;;12.30;10.97;;;29.60;92.40;;;;;;4986258;28;20424;-67
2022/07/24 11:17:48;;;;;;;25.30;11.43;;;30.00;87.50;;;;;;4977014;28;21083;-67
2022/07/24 11:20:20;;;;;;;27.03;10.93;;;29.80;84.90;;;;;;4977806;28;20471;-67
2022/07/24 11:22:51;;;;;;;11.63;10.50;;;29.90;83.50;;;;;;4978385;28;20176;-65
2022/07/24 11:25:26;;;;;;;11.10;10.10;;;29.50;80.30;;;;;;4978754;28;20432;-68
2022/07/24 11:27:56;;;;;;;10.60;9.80;;;29.50;79.20;;;;;;4979308;28;20422;-66
2022/07/24 11:30:23;;;;;;;12.20;11.07;;;29.60;78.10;;;;;;4978854;28;20958;-67
2022/07/24 11:32:49;;;;;;;9.90;9.00;;;29.80;76.50;;;;;;4979343;28;20439;-66
2022/07/24 11:35:16;;;;;;;15.83;10.33;;;29.60;71.10;;;;;;4978856;28;20450;-65
2022/07/24 11:37:43;;;;;;;10.97;9.90;;;29.60;67.30;;;;;;4977185;28;20729;-66
2022/07/24 11:40:14;;;;;;;10.17;9.37;;;29.30;62.20;;;;;;4999558;28;20954;-66
2022/07/24 11:42:40;;;;;;;10.20;9.37;;;29.20;60.50;;;;;;5024062;28;20909;-66
2022/07/24 11:45:06;;;;;;;16.43;9.97;;;29.60;61.40;;;;;;5020509;28;20430;-65
2022/07/24 11:47:32;;;;;;;9.17;8.37;;;30.00;61.00;;;;;;5018823;28;20606;-66
2022/07/24 11:50:02;;;;;;;10.17;9.23;;;29.90;58.20;;;;;;5018879;28;20430;-67
2022/07/24 11:52:35;;;;;;;9.60;8.90;;;29.70;56.00;;;;;;5020543;28;20743;-67
2022/07/24 11:55:24;;;;;;;25.38;10.93;;;29.50;43.90;;;;;;5047331;28;20575;-67
2022/07/24 11:57:55;;;;;;;10.03;9.10;;;29.40;55.50;;;;;;5047738;28;20253;-68
2022/07/24 12:00:28;;;;;;;11.43;9.17;;;29.10;53.10;;;;;;5042741;28;20460;-65
2022/07/24 12:02:58;;;;;;;10.40;8.77;;;29.30;52.50;;;;;;5040482;28;20482;-68
2022/07/24 12:05:29;;;;;;;14.97;9.27;;;29.50;51.00;;;;;;5043495;28;20421;-68
2022/07/24 12:07:57;;;;;;;13.33;8.63;;;29.80;49.00;;;;;;5039474;28;20420;-67
2022/07/24 12:10:23;;;;;;;9.30;8.57;;;30.00;46.30;;;;;;5042138;28;20509;-67
2022/07/24 12:12:51;;;;;;;11.50;8.63;;;30.20;43.80;;;;;;5042821;28;20409;-66
2022/07/24 12:15:17;;;;;;;15.67;8.40;;;30.20;41.20;;;;;;5041146;28;20432;-67
2022/07/24 12:18:02;;;;;;;17.50;9.00;;;30.20;38.70;;;;;;5041417;28;20893;-68
2022/07/24 12:20:35;;;;;;;21.77;9.97;;;30.20;35.10;;;;;;5042403;28;20543;-67
2022/07/24 12:23:05;;;;;;;9.57;8.63;;;30.20;34.60;;;;;;5039827;28;20497;-68
2022/07/24 12:25:31;;;;;;;8.83;7.93;;;30.30;33.60;;;;;;5042570;28;20575;-67
2022/07/24 12:28:02;;;;;;;33.78;10.80;;;30.10;30.60;;;;;;5040633;28;20888;-67
2022/07/24 12:30:35;;;;;;;8.10;7.40;;;30.20;30.20;;;;;;5001594;28;20215;-67
2022/07/24 12:33:06;;;;;;;16.50;9.10;;;30.40;27.60;;;;;;5002890;28;20450;-67
2022/07/24 12:35:55;;;;;;;17.80;8.90;;;30.50;26.40;;;;;;5004188;28;20423;-67
2022/07/24 12:38:34;;;;;;;9.47;7.80;;;30.40;25.40;;;;;;5002648;28;20426;-66